Time;durP1;ratioP1;P1;durP2;ratioP2;P2;SDS_P1;SDS_P2;PMS_P1;PMS_P2;Temp;Humidity;BMP_temperature;BMP_pressure;BME280_temperature;BME280_humidity;BME280_pressure;Samples;Min_cycle;Max_cycle;Signal;HPM_P1;HPM_P2
2023/03/04 00:01:22;;;;;;;77.40;24.08;;;;;;;;;;6269366;28;20408;-53
2023/03/04 00:04:23;;;;;;;77.25;25.48;;;;;;;;;;6267698;28;20044;-58
2023/03/04 00:07:23;;;;;;;73.93;23.15;;;;;;;;;;6268953;28;20079;-53
2023/03/04 00:10:24;;;;;;;70.30;23.35;;;;;;;;;;6274390;28;20048;-58
2023/03/04 00:13:24;;;;;;;74.07;22.90;;;;;;;;;;6272813;28;20511;-56
2023/03/04 00:16:26;;;;;;;68.20;22.20;;;;;;;;;;6269602;28;20037;-55
2023/03/04 00:19:26;;;;;;;63.25;21.95;;;;;;;;;;6273563;28;20048;-59
2023/03/04 00:22:27;;;;;;;68.13;21.05;;;;;;;;;;6269778;28;20457;-53
2023/03/04 00:25:27;;;;;;;67.05;22.63;;;;;;;;;;6266925;28;20072;-51
2023/03/04 00:28:28;;;;;;;64.97;20.63;;;;;;;;;;6273112;28;20878;-58
2023/03/04 00:31:28;;;;;;;72.35;22.02;;;;;;;;;;6272921;28;20098;-58
2023/03/04 00:34:29;;;;;;;67.95;21.52;;;;;;;;;;6269444;28;22328;-58
2023/03/04 00:37:30;;;;;;;62.45;20.75;;;;;;;;;;6281085;28;20048;-58
2023/03/04 00:40:31;;;;;;;68.47;21.17;;;;;;;;;;6282147;28;20048;-52
2023/03/04 00:43:31;;;;;;;74.00;24.85;;;;;;;;;;6287797;28;20557;-60
2023/03/04 00:46:32;;;;;;;66.40;22.27;;;;;;;;;;6284152;28;20484;-60
2023/03/04 00:49:33;;;;;;;74.88;23.75;;;;;;;;;;6283480;28;20376;-53
2023/03/04 00:52:34;;;;;;;75.60;23.45;;;;;;;;;;6282238;28;20048;-61
2023/03/04 00:55:34;;;;;;;75.18;24.08;;;;;;;;;;6286224;28;20487;-54
2023/03/04 00:58:35;;;;;;;74.38;24.13;;;;;;;;;;6288255;28;20066;-53
2023/03/04 01:01:35;;;;;;;76.00;24.65;;;;;;;;;;6274348;28;20147;-56
2023/03/04 01:04:37;;;;;;;80.72;27.30;;;;;;;;;;6282285;28;20044;-61
2023/03/04 01:07:37;;;;;;;79.13;26.02;;;;;;;;;;6273576;28;20407;-52
2023/03/04 01:10:38;;;;;;;73.63;23.42;;;;;;;;;;6273878;28;20402;-55
2023/03/04 01:13:39;;;;;;;74.68;24.52;;;;;;;;;;6272741;28;20049;-52
2023/03/04 01:16:40;;;;;;;88.03;26.95;;;;;;;;;;6270875;28;20041;-61
2023/03/04 01:19:40;;;;;;;78.30;26.63;;;;;;;;;;6276131;28;20086;-52
2023/03/04 01:22:41;;;;;;;89.07;27.55;;;;;;;;;;6275200;28;20162;-57
2023/03/04 01:25:41;;;;;;;89.28;28.88;;;;;;;;;;6272920;28;20095;-52
2023/03/04 01:28:42;;;;;;;94.00;28.08;;;;;;;;;;6280393;28;20047;-55
2023/03/04 01:31:43;;;;;;;98.72;30.90;;;;;;;;;;6272184;28;20076;-53
2023/03/04 01:34:43;;;;;;;88.65;29.67;;;;;;;;;;6272008;28;20496;-58
2023/03/04 01:37:44;;;;;;;95.75;29.67;;;;;;;;;;6274331;28;20048;-58
2023/03/04 01:40:45;;;;;;;99.63;30.00;;;;;;;;;;6272020;28;20045;-59
2023/03/04 01:43:45;;;;;;;101.75;30.15;;;;;;;;;;6270084;28;20766;-52
2023/03/04 01:46:49;;;;;;;92.22;29.65;;;;;;;;;;6273437;28;20057;-58
2023/03/04 01:49:53;;;;;;;91.88;29.08;;;;;;;;;;6275800;28;20049;-59
2023/03/04 01:52:54;;;;;;;95.93;28.40;;;;;;;;;;6269985;28;20051;-56
2023/03/04 01:56:04;;;;;;;97.63;30.55;;;;;;;;;;6271064;28;20044;-52
2023/03/04 01:59:21;;;;;;;99.57;30.05;;;;;;;;;;6273681;28;20057;-55
2023/03/04 02:02:22;;;;;;;81.45;24.42;;;;;;;;;;6273710;28;20095;-52
2023/03/04 02:05:23;;;;;;;75.72;26.30;;;;;;;;;;6283056;28;20048;-53
2023/03/04 02:08:24;;;;;;;80.38;24.13;;;;;;;;;;6281376;28;20045;-58
2023/03/04 02:11:25;;;;;;;76.18;23.50;;;;;;;;;;6277624;28;20048;-54
2023/03/04 02:14:26;;;;;;;74.38;23.80;;;;;;;;;;6271073;28;20041;-61
2023/03/04 02:17:27;;;;;;;74.40;24.08;;;;;;;;;;6276153;28;20060;-58
2023/03/04 02:20:56;;;;;;;68.25;22.90;;;;;;;;;;6277606;28;20480;-55
2023/03/04 02:24:14;;;;;;;66.80;22.52;;;;;;;;;;6280406;28;20139;-54
2023/03/04 02:27:15;;;;;;;67.60;21.58;;;;;;;;;;6275190;28;20058;-50
2023/03/04 02:30:19;;;;;;;63.42;20.60;;;;;;;;;;6274030;28;20522;-53
2023/03/04 02:33:19;;;;;;;63.00;19.70;;;;;;;;;;6273172;28;20135;-58
2023/03/04 02:36:21;;;;;;;62.75;22.35;;;;;;;;;;6271223;28;20055;-53
2023/03/04 02:39:31;;;;;;;72.82;23.80;;;;;;;;;;6276439;28;20083;-53
2023/03/04 02:42:32;;;;;;;73.35;22.35;;;;;;;;;;6273349;28;20048;-53
2023/03/04 02:45:41;;;;;;;63.33;20.85;;;;;;;;;;6276003;28;20052;-53
2023/03/04 02:48:42;;;;;;;69.43;21.25;;;;;;;;;;6273371;28;20051;-54
2023/03/04 02:51:42;;;;;;;64.22;21.35;;;;;;;;;;6273135;28;20045;-53
2023/03/04 02:54:44;;;;;;;64.40;20.88;;;;;;;;;;6273981;28;20568;-53
2023/03/04 02:57:44;;;;;;;67.13;21.60;;;;;;;;;;6271503;28;20049;-54
2023/03/04 03:00:45;;;;;;;59.75;20.30;;;;;;;;;;6271631;28;20163;-51
2023/03/04 03:03:45;;;;;;;56.78;20.23;;;;;;;;;;6278051;28;20052;-51
2023/03/04 03:06:46;;;;;;;59.45;19.33;;;;;;;;;;6270718;28;20033;-59
2023/03/04 03:09:47;;;;;;;56.92;18.02;;;;;;;;;;6281165;28;20048;-49
2023/03/04 03:12:47;;;;;;;59.13;18.00;;;;;;;;;;6271426;28;20094;-53
2023/03/04 03:15:48;;;;;;;55.10;18.50;;;;;;;;;;6283384;28;20041;-51
2023/03/04 03:18:49;;;;;;;53.17;17.52;;;;;;;;;;6282035;28;20037;-49
2023/03/04 03:21:49;;;;;;;58.05;19.35;;;;;;;;;;6276549;28;20041;-50
2023/03/04 03:24:50;;;;;;;59.65;19.35;;;;;;;;;;6288227;28;20044;-54
2023/03/04 03:27:50;;;;;;;59.63;19.20;;;;;;;;;;6276946;28;20047;-56
2023/03/04 03:30:51;;;;;;;58.70;19.42;;;;;;;;;;6270396;28;20195;-49
2023/03/04 03:33:51;;;;;;;60.67;18.85;;;;;;;;;;6271858;28;20064;-59
2023/03/04 03:36:52;;;;;;;66.10;20.48;;;;;;;;;;6267470;28;20078;-52
2023/03/04 03:39:52;;;;;;;68.55;20.63;;;;;;;;;;6279720;28;20045;-50
2023/03/04 03:42:53;;;;;;;62.38;19.25;;;;;;;;;;6270642;28;20614;-60
2023/03/04 03:45:54;;;;;;;66.35;21.33;;;;;;;;;;6264738;28;20093;-51
2023/03/04 03:48:54;;;;;;;65.93;19.27;;;;;;;;;;6277424;28;20063;-50
2023/03/04 03:51:55;;;;;;;57.97;19.27;;;;;;;;;;6289922;28;20045;-52
2023/03/04 03:54:56;;;;;;;55.42;17.75;;;;;;;;;;6266736;28;20057;-59
2023/03/04 03:57:56;;;;;;;62.92;19.27;;;;;;;;;;6267909;28;20048;-54
2023/03/04 04:00:57;;;;;;;62.33;19.38;;;;;;;;;;6270874;28;20330;-50
2023/03/04 04:03:58;;;;;;;74.03;20.75;;;;;;;;;;6271958;28;20053;-50
2023/03/04 04:06:59;;;;;;;62.17;18.25;;;;;;;;;;6268491;28;20049;-51
2023/03/04 04:09:59;;;;;;;58.55;17.98;;;;;;;;;;6268171;28;20419;-48
2023/03/04 04:13:00;;;;;;;55.28;17.27;;;;;;;;;;6290808;28;20048;-50
2023/03/04 04:16:01;;;;;;;63.22;18.85;;;;;;;;;;6272116;28;20485;-53
2023/03/04 04:19:01;;;;;;;68.72;18.63;;;;;;;;;;6273361;28;20121;-52
2023/03/04 04:22:02;;;;;;;66.60;18.42;;;;;;;;;;6270387;28;20056;-49
2023/03/04 04:25:03;;;;;;;60.55;19.08;;;;;;;;;;6269775;28;20074;-52
2023/03/04 04:28:04;;;;;;;65.03;18.88;;;;;;;;;;6269203;28;20052;-55
2023/03/04 04:31:08;;;;;;;62.78;19.63;;;;;;;;;;6266018;28;20041;-54
2023/03/04 04:34:09;;;;;;;65.00;19.25;;;;;;;;;;6277332;28;20053;-51
2023/03/04 04:37:10;;;;;;;65.93;20.02;;;;;;;;;;6279451;28;20458;-50
2023/03/04 04:40:11;;;;;;;70.32;20.65;;;;;;;;;;6283722;28;20044;-49
2023/03/04 04:43:11;;;;;;;69.82;19.98;;;;;;;;;;6283091;28;20145;-50
2023/03/04 04:46:13;;;;;;;73.57;21.42;;;;;;;;;;6277339;28;20505;-55
2023/03/04 04:49:13;;;;;;;85.53;22.33;;;;;;;;;;6289554;28;20052;-49
2023/03/04 04:52:14;;;;;;;78.25;22.52;;;;;;;;;;6281696;28;20162;-53
2023/03/04 04:55:15;;;;;;;74.20;21.48;;;;;;;;;;6275656;28;20043;-50
2023/03/04 04:58:15;;;;;;;77.30;22.00;;;;;;;;;;6290305;28;20430;-55
2023/03/04 05:01:16;;;;;;;82.70;22.80;;;;;;;;;;6274177;28;20053;-49
2023/03/04 05:04:16;;;;;;;78.28;24.85;;;;;;;;;;6270407;28;20048;-52
2023/03/04 05:07:17;;;;;;;78.03;21.50;;;;;;;;;;6270509;28;20056;-51
2023/03/04 05:10:18;;;;;;;79.88;21.83;;;;;;;;;;6268841;28;20055;-51
2023/03/04 05:13:19;;;;;;;74.45;21.50;;;;;;;;;;6267679;28;20040;-55
2023/03/04 05:16:20;;;;;;;82.30;22.67;;;;;;;;;;6268960;28;20406;-55
2023/03/04 05:19:20;;;;;;;70.18;20.63;;;;;;;;;;6269287;28;20053;-56
2023/03/04 05:22:21;;;;;;;71.72;20.40;;;;;;;;;;6267869;28;20041;-52
2023/03/04 05:25:21;;;;;;;78.30;22.10;;;;;;;;;;6267975;28;20072;-54
2023/03/04 05:28:22;;;;;;;73.85;20.92;;;;;;;;;;6270300;28;20178;-52
2023/03/04 05:31:23;;;;;;;75.53;21.27;;;;;;;;;;6271567;28;20079;-54
2023/03/04 05:34:23;;;;;;;69.00;21.25;;;;;;;;;;6270712;28;20041;-49
2023/03/04 05:37:24;;;;;;;71.70;22.02;;;;;;;;;;6269516;28;20061;-55
2023/03/04 05:40:24;;;;;;;67.68;20.83;;;;;;;;;;6274421;28;20438;-49
2023/03/04 05:43:26;;;;;;;67.22;21.25;;;;;;;;;;6273631;28;20563;-56
2023/03/04 05:46:27;;;;;;;68.85;21.27;;;;;;;;;;6269160;28;20079;-49
2023/03/04 05:49:28;;;;;;;71.85;20.77;;;;;;;;;;6270442;28;20040;-56
2023/03/04 05:52:28;;;;;;;68.63;21.23;;;;;;;;;;6272495;28;20044;-52
2023/03/04 05:55:29;;;;;;;66.40;21.05;;;;;;;;;;6272398;28;20049;-51
2023/03/04 05:58:29;;;;;;;73.80;21.83;;;;;;;;;;6272531;28;20045;-56
2023/03/04 06:01:30;;;;;;;76.70;23.67;;;;;;;;;;6276378;28;20120;-50
2023/03/04 06:04:31;;;;;;;69.60;20.60;;;;;;;;;;6275401;28;20045;-50
2023/03/04 06:07:31;;;;;;;73.50;22.15;;;;;;;;;;6292298;28;20053;-51
2023/03/04 06:10:32;;;;;;;79.07;22.10;;;;;;;;;;6284107;28;20483;-51
2023/03/04 06:13:33;;;;;;;74.35;20.83;;;;;;;;;;6293987;28;20053;-55
2023/03/04 06:16:34;;;;;;;79.78;22.42;;;;;;;;;;6275427;28;20811;-58
2023/03/04 06:19:36;;;;;;;64.45;21.05;;;;;;;;;;6279065;28;20044;-55
2023/03/04 06:22:37;;;;;;;67.50;19.42;;;;;;;;;;6274211;28;20044;-51
2023/03/04 06:25:38;;;;;;;66.90;20.63;;;;;;;;;;6274634;28;20680;-51
2023/03/04 06:28:38;;;;;;;66.97;19.60;;;;;;;;;;6274561;28;20055;-53
2023/03/04 06:31:40;;;;;;;64.15;20.13;;;;;;;;;;6272992;28;20083;-58
2023/03/04 06:34:41;;;;;;;61.58;20.73;;;;;;;;;;6277657;28;20079;-56
2023/03/04 06:37:42;;;;;;;63.75;20.05;;;;;;;;;;6278407;28;20041;-54
2023/03/04 06:40:44;;;;;;;66.82;18.42;;;;;;;;;;6273479;28;20060;-54
2023/03/04 06:43:45;;;;;;;61.40;18.90;;;;;;;;;;6270376;28;20049;-54
2023/03/04 06:46:45;;;;;;;59.97;20.17;;;;;;;;;;6268215;28;20060;-52
2023/03/04 06:49:46;;;;;;;66.90;19.85;;;;;;;;;;6270730;28;20072;-51
2023/03/04 06:52:48;;;;;;;61.00;18.35;;;;;;;;;;6291317;28;20558;-57
2023/03/04 06:55:49;;;;;;;67.88;18.98;;;;;;;;;;6285447;28;20055;-56
2023/03/04 06:58:50;;;;;;;57.05;18.50;;;;;;;;;;6292033;28;20052;-51
2023/03/04 07:01:51;;;;;;;60.83;18.77;;;;;;;;;;6273422;28;20064;-52
2023/03/04 07:04:51;;;;;;;60.90;18.13;;;;;;;;;;6270985;28;20041;-57
2023/03/04 07:07:52;;;;;;;56.25;18.60;;;;;;;;;;6272594;28;20048;-54
2023/03/04 07:10:52;;;;;;;59.30;20.17;;;;;;;;;;6286463;28;20067;-54
2023/03/04 07:13:53;;;;;;;56.20;19.35;;;;;;;;;;6269475;28;20139;-53
2023/03/04 07:16:54;;;;;;;65.07;21.25;;;;;;;;;;6269485;28;20521;-55
2023/03/04 07:19:55;;;;;;;54.72;18.55;;;;;;;;;;6273378;28;20499;-57
2023/03/04 07:22:55;;;;;;;60.72;20.55;;;;;;;;;;6268569;28;20045;-66
2023/03/04 07:25:56;;;;;;;60.40;20.15;;;;;;;;;;6270392;28;20139;-52
2023/03/04 07:28:58;;;;;;;64.88;21.45;;;;;;;;;;6272859;28;20053;-53
2023/03/04 07:31:59;;;;;;;61.38;20.08;;;;;;;;;;6280650;28;20058;-56
2023/03/04 07:35:00;;;;;;;60.38;20.02;;;;;;;;;;6268822;28;20053;-53
2023/03/04 07:38:01;;;;;;;62.25;21.52;;;;;;;;;;6269496;28;20049;-54
2023/03/04 07:41:02;;;;;;;68.47;21.15;;;;;;;;;;6281380;28;20033;-50
2023/03/04 07:44:04;;;;;;;72.85;24.00;;;;;;;;;;6272712;28;20044;-59
2023/03/04 07:47:04;;;;;;;62.38;20.70;;;;;;;;;;6270019;28;20044;-56
2023/03/04 07:50:05;;;;;;;56.80;20.45;;;;;;;;;;6269314;28;20427;-49
2023/03/04 07:53:06;;;;;;;66.70;21.67;;;;;;;;;;6272276;28;20049;-50
2023/03/04 07:56:11;;;;;;;55.28;19.05;;;;;;;;;;6270649;28;20076;-52
2023/03/04 07:59:11;;;;;;;57.30;19.52;;;;;;;;;;6271028;28;20147;-51
2023/03/04 08:02:12;;;;;;;54.63;18.70;;;;;;;;;;6287631;28;20070;-50
2023/03/04 08:05:13;;;;;;;58.72;19.10;;;;;;;;;;6283233;28;20040;-52
2023/03/04 08:08:14;;;;;;;54.25;17.95;;;;;;;;;;6270986;28;20037;-57
2023/03/04 08:11:19;;;;;;;49.13;18.15;;;;;;;;;;6272414;28;20045;-57
2023/03/04 08:14:20;;;;;;;50.13;16.58;;;;;;;;;;6286169;28;20377;-50
2023/03/04 08:17:20;;;;;;;58.97;20.52;;;;;;;;;;6275620;28;20170;-57
2023/03/04 08:20:21;;;;;;;52.75;18.85;;;;;;;;;;6268953;28;22740;-53
2023/03/04 08:23:21;;;;;;;50.13;17.17;;;;;;;;;;6270170;28;20063;-58
2023/03/04 08:26:26;;;;;;;51.75;17.35;;;;;;;;;;6269155;28;20134;-58
2023/03/04 08:29:27;;;;;;;44.30;17.40;;;;;;;;;;6269256;28;20049;-54
2023/03/04 08:32:27;;;;;;;47.80;17.60;;;;;;;;;;6269248;28;20128;-50
2023/03/04 08:35:28;;;;;;;47.00;16.17;;;;;;;;;;6267379;28;20533;-56
2023/03/04 08:38:30;;;;;;;46.38;16.00;;;;;;;;;;6270868;28;20087;-49
2023/03/04 08:41:31;;;;;;;45.65;16.98;;;;;;;;;;6289720;28;20556;-51
2023/03/04 08:44:32;;;;;;;45.63;15.23;;;;;;;;;;6277058;28;20045;-54
2023/03/04 08:47:32;;;;;;;46.55;16.38;;;;;;;;;;6271791;28;20049;-50
2023/03/04 08:50:33;;;;;;;44.22;16.70;;;;;;;;;;6269733;28;20072;-60
2023/03/04 08:53:33;;;;;;;45.90;16.42;;;;;;;;;;6268850;28;20045;-61
2023/03/04 08:56:34;;;;;;;47.08;17.08;;;;;;;;;;6275129;28;20051;-50
2023/03/04 08:59:34;;;;;;;43.95;16.80;;;;;;;;;;6286982;28;20445;-52
2023/03/04 09:02:35;;;;;;;44.28;17.15;;;;;;;;;;6275783;28;20140;-50
2023/03/04 09:05:35;;;;;;;47.72;16.38;;;;;;;;;;6289604;28;20139;-50
2023/03/04 09:08:36;;;;;;;46.75;16.48;;;;;;;;;;6275557;28;20136;-51
2023/03/04 09:11:37;;;;;;;51.92;17.83;;;;;;;;;;6275664;28;20052;-52
2023/03/04 09:14:37;;;;;;;46.88;17.13;;;;;;;;;;6292637;28;20157;-56
2023/03/04 09:17:39;;;;;;;46.05;16.65;;;;;;;;;;6280722;28;20045;-53
2023/03/04 09:20:40;;;;;;;42.88;16.20;;;;;;;;;;6276660;28;20047;-49
2023/03/04 09:23:40;;;;;;;41.42;15.57;;;;;;;;;;6286697;28;20057;-54
2023/03/04 09:26:41;;;;;;;44.65;16.65;;;;;;;;;;6277867;28;20055;-50
2023/03/04 09:29:43;;;;;;;48.15;17.15;;;;;;;;;;6280488;28;20049;-54
2023/03/04 09:32:44;;;;;;;50.17;17.60;;;;;;;;;;6278645;28;20055;-51
2023/03/04 09:35:44;;;;;;;48.67;18.13;;;;;;;;;;6272256;28;20562;-52
2023/03/04 09:38:45;;;;;;;54.13;18.10;;;;;;;;;;6274169;28;20509;-59
2023/03/04 09:41:55;;;;;;;42.95;17.45;;;;;;;;;;6274897;28;20044;-54
2023/03/04 09:44:56;;;;;;;45.92;17.00;;;;;;;;;;6290348;28;20055;-51
2023/03/04 09:47:57;;;;;;;49.77;16.73;;;;;;;;;;6278366;28;20537;-52
2023/03/04 09:51:18;;;;;;;46.63;16.83;;;;;;;;;;6277496;28;20045;-54
2023/03/04 09:54:44;;;;;;;47.78;17.48;;;;;;;;;;6274586;28;20108;-51
2023/03/04 09:57:47;;;;;;;45.28;16.25;;;;;;;;;;6291019;28;20045;-57
2023/03/04 10:00:54;;;;;;;40.13;16.38;;;;;;;;;;6270432;28;20041;-53
2023/03/04 10:04:24;;;;;;;45.35;17.40;;;;;;;;;;6273998;28;20147;-52
2023/03/04 10:07:32;;;;;;;45.63;15.98;;;;;;;;;;6271227;28;20515;-60
2023/03/04 10:10:38;;;;;;;48.35;17.17;;;;;;;;;;6291766;28;20487;-51
2023/03/04 10:14:16;;;;;;;41.42;16.27;;;;;;;;;;6281168;28;20053;-55
2023/03/04 10:17:23;;;;;;;43.10;16.38;;;;;;;;;;6283852;28;20380;-50
2023/03/04 10:20:37;;;;;;;49.75;16.73;;;;;;;;;;6267798;28;20480;-51
2023/03/04 10:23:40;;;;;;;44.38;16.95;;;;;;;;;;6271374;28;20055;-52
2023/03/04 10:26:47;;;;;;;43.33;16.02;;;;;;;;;;6290543;28;20054;-51
2023/03/04 10:29:48;;;;;;;45.70;15.82;;;;;;;;;;6288266;28;20553;-51
2023/03/04 10:32:48;;;;;;;50.47;18.80;;;;;;;;;;6280320;28;20079;-56
2023/03/04 10:36:16;;;;;;;49.55;17.25;;;;;;;;;;6275220;28;20050;-56
2023/03/04 10:39:21;;;;;;;52.47;18.15;;;;;;;;;;6277585;28;20511;-56
2023/03/04 10:42:26;;;;;;;56.60;19.30;;;;;;;;;;6271519;28;20139;-52
2023/03/04 10:45:29;;;;;;;53.45;18.98;;;;;;;;;;6268947;28;20049;-51
2023/03/04 10:48:31;;;;;;;51.67;18.98;;;;;;;;;;6270022;28;20064;-53
2023/03/04 10:51:31;;;;;;;55.65;19.10;;;;;;;;;;6269109;28;20225;-51
2023/03/04 10:54:46;;;;;;;57.42;20.90;;;;;;;;;;6274586;28;20863;-54
2023/03/04 10:57:56;;;;;;;67.28;22.73;;;;;;;;;;6272705;28;20053;-51
2023/03/04 11:01:04;;;;;;;73.53;24.67;;;;;;;;;;6270172;28;20060;-59
2023/03/04 11:04:17;;;;;;;74.43;23.95;;;;;;;;;;6277074;28;20130;-53
2023/03/04 11:07:20;;;;;;;72.70;24.67;;;;;;;;;;6278292;28;20151;-55
2023/03/04 11:10:41;;;;;;;70.90;24.60;;;;;;;;;;6276692;28;20505;-55
2023/03/04 11:13:56;;;;;;;81.35;24.85;;;;;;;;;;6278600;28;20048;-54
2023/03/04 11:17:15;;;;;;;78.10;25.92;;;;;;;;;;6277433;28;20109;-53
2023/03/04 11:20:30;;;;;;;102.93;34.55;;;;;;;;;;6275418;28;20556;-56
2023/03/04 11:23:30;;;;;;;87.28;31.90;;;;;;;;;;6278227;28;20147;-54
2023/03/04 11:26:45;;;;;;;85.75;28.75;;;;;;;;;;6278171;28;20111;-51
2023/03/04 11:29:51;;;;;;;92.85;28.20;;;;;;;;;;6276447;28;20070;-62
2023/03/04 11:32:59;;;;;;;86.20;28.50;;;;;;;;;;6274747;28;20524;-53
2023/03/04 11:36:20;;;;;;;79.30;27.17;;;;;;;;;;6278523;28;20101;-55
2023/03/04 11:39:30;;;;;;;79.18;25.80;;;;;;;;;;6275102;28;20049;-54
2023/03/04 11:42:40;;;;;;;79.35;25.60;;;;;;;;;;6277664;28;20049;-54
2023/03/04 11:45:58;;;;;;;80.05;25.60;;;;;;;;;;6276744;28;20052;-54
2023/03/04 11:49:04;;;;;;;67.60;24.95;;;;;;;;;;6278373;28;20048;-55
2023/03/04 11:52:33;;;;;;;82.88;25.08;;;;;;;;;;6281772;28;20744;-63
2023/03/04 11:55:45;;;;;;;74.43;24.90;;;;;;;;;;6281153;28;20063;-61
2023/03/04 11:58:55;;;;;;;76.57;28.77;;;;;;;;;;6269065;28;20055;-58
2023/03/04 12:02:10;;;;;;;73.70;24.35;;;;;;;;;;6269113;28;20052;-59
2023/03/04 12:05:22;;;;;;;77.03;24.55;;;;;;;;;;6265449;28;20148;-59
2023/03/04 12:08:47;;;;;;;70.53;23.80;;;;;;;;;;6265155;28;20051;-59
2023/03/04 12:12:23;;;;;;;77.93;25.73;;;;;;;;;;6267051;28;20553;-59
2023/03/04 12:15:42;;;;;;;79.20;23.67;;;;;;;;;;6241135;28;20053;-60
2023/03/04 12:19:31;;;;;;;76.10;26.58;;;;;;;;;;6266708;28;21296;-61
2023/03/04 12:22:50;;;;;;;73.53;25.23;;;;;;;;;;6243647;28;20049;-60
2023/03/04 12:26:16;;;;;;;75.70;25.10;;;;;;;;;;6246977;28;20055;-58
2023/03/04 12:29:42;;;;;;;73.20;24.60;;;;;;;;;;6266546;28;21101;-55
2023/03/04 12:33:11;;;;;;;73.85;24.63;;;;;;;;;;6269095;28;20052;-60
2023/03/04 12:36:31;;;;;;;80.47;25.73;;;;;;;;;;6272000;28;20048;-58
2023/03/04 12:39:41;;;;;;;78.63;27.35;;;;;;;;;;6272265;28;20054;-59
2023/03/04 12:43:02;;;;;;;82.55;26.98;;;;;;;;;;6271441;28;20510;-60
2023/03/04 12:46:28;;;;;;;98.15;31.17;;;;;;;;;;6272836;28;20052;-61
2023/03/04 12:49:51;;;;;;;73.65;25.55;;;;;;;;;;6272533;28;20179;-59
2023/03/04 12:53:00;;;;;;;76.82;24.75;;;;;;;;;;6278895;28;20053;-59
2023/03/04 12:56:01;;;;;;;72.88;24.63;;;;;;;;;;6282932;28;20063;-59
2023/03/04 12:59:04;;;;;;;74.65;23.92;;;;;;;;;;6283158;28;20423;-59
2023/03/04 13:02:41;;;;;;;73.10;24.73;;;;;;;;;;6276252;28;20071;-58
2023/03/04 13:05:47;;;;;;;73.13;24.48;;;;;;;;;;6265908;28;20060;-59
2023/03/04 13:08:57;;;;;;;102.82;38.10;;;;;;;;;;6273869;28;20044;-59
2023/03/04 13:12:24;;;;;;;71.22;25.00;;;;;;;;;;6274495;28;20052;-59
2023/03/04 13:15:28;;;;;;;77.40;27.75;;;;;;;;;;6273527;28;20536;-58
2023/03/04 13:18:40;;;;;;;67.55;24.20;;;;;;;;;;6274952;28;20067;-61
2023/03/04 13:21:45;;;;;;;61.03;22.27;;;;;;;;;;6270818;28;20048;-58
2023/03/04 13:24:49;;;;;;;68.65;23.10;;;;;;;;;;6275234;28;20052;-57
2023/03/04 13:28:11;;;;;;;60.38;21.58;;;;;;;;;;6273416;28;20403;-59
2023/03/04 13:31:15;;;;;;;64.57;23.42;;;;;;;;;;6271659;28;20053;-59
2023/03/04 13:34:42;;;;;;;65.90;23.48;;;;;;;;;;6273414;28;20075;-59
2023/03/04 13:37:57;;;;;;;69.32;23.23;;;;;;;;;;6272765;28;20048;-58
2023/03/04 13:41:04;;;;;;;111.47;39.70;;;;;;;;;;6270907;28;20106;-57
2023/03/04 13:44:33;;;;;;;71.40;26.27;;;;;;;;;;6275813;28;20067;-56
2023/03/04 13:47:43;;;;;;;68.40;24.48;;;;;;;;;;6267373;28;20107;-55
2023/03/04 13:50:47;;;;;;;66.55;24.02;;;;;;;;;;6272243;28;20049;-59
2023/03/04 13:53:53;;;;;;;64.93;24.52;;;;;;;;;;6274635;28;20085;-59
2023/03/04 13:57:00;;;;;;;60.03;21.15;;;;;;;;;;6273465;28;20078;-58
2023/03/04 14:00:03;;;;;;;57.58;21.65;;;;;;;;;;6270241;28;20562;-58
2023/03/04 14:03:19;;;;;;;62.53;23.15;;;;;;;;;;6275321;28;21538;-58
2023/03/04 14:06:23;;;;;;;56.50;21.23;;;;;;;;;;6275429;28;20095;-55
2023/03/04 14:09:27;;;;;;;61.88;23.60;;;;;;;;;;6272233;28;20048;-56
2023/03/04 14:12:31;;;;;;;61.47;22.20;;;;;;;;;;6273188;28;20060;-59
2023/03/04 14:15:34;;;;;;;62.88;23.30;;;;;;;;;;6274840;28;20075;-58
2023/03/04 14:18:35;;;;;;;58.05;21.40;;;;;;;;;;6275699;28;20055;-58
2023/03/04 14:21:36;;;;;;;62.42;21.95;;;;;;;;;;6270956;28;21286;-58
2023/03/04 14:24:36;;;;;;;56.45;20.20;;;;;;;;;;6273528;28;20054;-56
2023/03/04 14:27:38;;;;;;;64.65;21.77;;;;;;;;;;6272467;28;20084;-54
2023/03/04 14:30:40;;;;;;;54.95;20.50;;;;;;;;;;6269946;28;20055;-57
2023/03/04 14:33:45;;;;;;;57.45;20.98;;;;;;;;;;6273019;28;20048;-59
2023/03/04 14:36:45;;;;;;;59.95;22.45;;;;;;;;;;6271343;28;20052;-58
2023/03/04 14:39:51;;;;;;;55.20;20.45;;;;;;;;;;6270324;28;20571;-57
2023/03/04 14:42:56;;;;;;;58.25;22.63;;;;;;;;;;6270257;28;20072;-57
2023/03/04 14:46:01;;;;;;;57.13;19.83;;;;;;;;;;6271446;28;20052;-59
2023/03/04 14:49:02;;;;;;;60.80;21.08;;;;;;;;;;6269880;28;20179;-58
2023/03/04 14:52:04;;;;;;;67.97;23.92;;;;;;;;;;6270373;28;20180;-57
2023/03/04 14:55:13;;;;;;;66.87;28.93;;;;;;;;;;6272680;28;20049;-58
2023/03/04 14:58:23;;;;;;;66.75;23.60;;;;;;;;;;6272597;28;20052;-60
2023/03/04 15:01:33;;;;;;;54.22;20.63;;;;;;;;;;6269234;28;20041;-56
2023/03/04 15:04:37;;;;;;;68.30;24.52;;;;;;;;;;6271433;28;20056;-58
2023/03/04 15:07:38;;;;;;;60.97;23.02;;;;;;;;;;6271696;28;20087;-57
2023/03/04 15:10:38;;;;;;;58.17;21.08;;;;;;;;;;6268641;28;20452;-60
2023/03/04 15:13:43;;;;;;;56.75;21.67;;;;;;;;;;6269973;28;20045;-60
2023/03/04 15:16:56;;;;;;;56.88;20.92;;;;;;;;;;6270370;28;20061;-57
2023/03/04 15:20:22;;;;;;;56.13;20.20;;;;;;;;;;6269535;28;20066;-57
2023/03/04 15:23:23;;;;;;;60.72;21.58;;;;;;;;;;6271036;28;20045;-57
2023/03/04 15:26:24;;;;;;;53.78;18.95;;;;;;;;;;6269776;28;20653;-57
2023/03/04 15:29:25;;;;;;;55.58;21.55;;;;;;;;;;6270073;28;20048;-57
2023/03/04 15:32:29;;;;;;;57.35;24.63;;;;;;;;;;6270626;28;20450;-59
2023/03/04 15:35:32;;;;;;;57.72;24.00;;;;;;;;;;6268791;28;20048;-60
2023/03/04 15:38:32;;;;;;;52.78;20.55;;;;;;;;;;6272549;28;20060;-60
2023/03/04 15:41:33;;;;;;;52.10;19.65;;;;;;;;;;6269224;28;20089;-59
2023/03/04 15:44:34;;;;;;;51.50;19.55;;;;;;;;;;6272670;28;20056;-56
2023/03/04 15:47:34;;;;;;;52.13;19.15;;;;;;;;;;6274285;28;20704;-55
2023/03/04 15:50:38;;;;;;;48.58;19.42;;;;;;;;;;6280500;28;20053;-53
2023/03/04 15:53:47;;;;;;;54.08;20.10;;;;;;;;;;6279119;28;20098;-55
2023/03/04 15:56:47;;;;;;;61.25;24.42;;;;;;;;;;6280732;28;20052;-55
2023/03/04 15:59:48;;;;;;;55.75;19.65;;;;;;;;;;6280670;28;20063;-54
2023/03/04 16:02:49;;;;;;;54.75;19.33;;;;;;;;;;6280966;28;20059;-51
2023/03/04 16:05:51;;;;;;;59.50;20.75;;;;;;;;;;6280417;28;20105;-54
2023/03/04 16:08:52;;;;;;;56.80;19.20;;;;;;;;;;6281005;28;20186;-54
2023/03/04 16:11:55;;;;;;;51.28;18.98;;;;;;;;;;6278531;28;20041;-54
2023/03/04 16:14:55;;;;;;;53.30;19.35;;;;;;;;;;6280494;28;20178;-51
2023/03/04 16:17:56;;;;;;;53.00;19.30;;;;;;;;;;6278189;28;20562;-54
2023/03/04 16:20:57;;;;;;;65.03;22.98;;;;;;;;;;6279975;28;20060;-51
2023/03/04 16:23:58;;;;;;;53.53;21.42;;;;;;;;;;6280117;28;20048;-52
2023/03/04 16:26:59;;;;;;;53.58;19.60;;;;;;;;;;6279775;28;20079;-53
2023/03/04 16:30:00;;;;;;;69.57;30.23;;;;;;;;;;6280903;28;20044;-54
2023/03/04 16:33:00;;;;;;;55.08;20.42;;;;;;;;;;6281168;28;20491;-52
2023/03/04 16:36:02;;;;;;;52.35;19.40;;;;;;;;;;6279644;28;20045;-53
2023/03/04 16:39:11;;;;;;;52.55;19.83;;;;;;;;;;6279922;28;20451;-54
2023/03/04 16:42:15;;;;;;;48.28;19.17;;;;;;;;;;6280463;28;20044;-49
2023/03/04 16:45:19;;;;;;;49.58;17.85;;;;;;;;;;6280554;28;20128;-50
2023/03/04 16:48:20;;;;;;;49.35;18.52;;;;;;;;;;6279082;28;20436;-49
2023/03/04 16:51:22;;;;;;;53.67;21.30;;;;;;;;;;6280136;28;20051;-50
2023/03/04 16:54:29;;;;;;;50.58;19.25;;;;;;;;;;6280720;28;20052;-50
2023/03/04 16:57:30;;;;;;;49.30;18.60;;;;;;;;;;6277926;28;20114;-50
2023/03/04 17:00:31;;;;;;;54.63;18.90;;;;;;;;;;6279117;28;20052;-53
2023/03/04 17:03:31;;;;;;;64.25;21.92;;;;;;;;;;6279915;28;21115;-52
2023/03/04 17:06:35;;;;;;;60.28;19.33;;;;;;;;;;6275975;28;20700;-48
2023/03/04 17:09:36;;;;;;;56.38;20.83;;;;;;;;;;6278420;28;20126;-53
2023/03/04 17:12:37;;;;;;;52.53;20.08;;;;;;;;;;6280927;28;20876;-53
2023/03/04 17:15:37;;;;;;;49.42;19.70;;;;;;;;;;6276271;28;20098;-51
2023/03/04 17:18:38;;;;;;;53.08;20.50;;;;;;;;;;6277945;28;20053;-52
2023/03/04 17:21:39;;;;;;;58.67;21.15;;;;;;;;;;6277227;28;20056;-52
2023/03/04 17:24:39;;;;;;;51.42;18.95;;;;;;;;;;6282748;28;20177;-50
2023/03/04 17:27:40;;;;;;;52.63;18.88;;;;;;;;;;6280839;28;20045;-50
2023/03/04 17:30:41;;;;;;;54.83;19.77;;;;;;;;;;6282022;28;20048;-52
2023/03/04 17:33:42;;;;;;;55.47;21.08;;;;;;;;;;6284439;28;20118;-49
2023/03/04 17:36:43;;;;;;;45.90;19.58;;;;;;;;;;6282466;28;20047;-51
2023/03/04 17:39:44;;;;;;;70.57;25.08;;;;;;;;;;6281233;28;20048;-51
2023/03/04 17:42:44;;;;;;;54.85;22.48;;;;;;;;;;6282763;28;20483;-50
2023/03/04 17:45:45;;;;;;;56.30;23.60;;;;;;;;;;6283425;28;20056;-53
2023/03/04 17:48:47;;;;;;;52.78;20.98;;;;;;;;;;6283892;28;20074;-51
2023/03/04 17:51:47;;;;;;;62.60;21.88;;;;;;;;;;6283372;28;20139;-52